This is the latest recevied weather packets stored in our database for station/object K6FAK-13. If no packets are shown the sender has not sent any weather packets the latest 10 day(s).
| Time | Temp. | Humidity | Pressure | Rain* | Wind** | Luminosity | Snow |
|---|---|---|---|---|---|---|---|
| 1777665611 | 24.44° C | 59% | 1015.7 hPa | 0 mm | - | 704 W/m² | - |
| 1777664699 | 23.33° C | 60% | 1016 hPa | 0 mm | - | 758 W/m² | - |
| 1777664093 | 23.89° C | 60% | 1016 hPa | 0 mm | - | 711 W/m² | - |
| 1777660753 | 22.78° C | 63% | 1016.4 hPa | 0 mm | - | 780 W/m² | - |
| 1777660451 | 22.78° C | 63% | 1016.4 hPa | 0 mm | - | 850 W/m² | - |
| 1777660147 | 23.89° C | 61% | 1016.4 hPa | 0 mm | - | 838 W/m² | - |
| 1777659541 | 22.22° C | 64% | 1016.5 hPa | 0 mm | - | 855 W/m² | - |
| 1777659238 | 22.22° C | 63% | 1016.5 hPa | 0 mm | - | 818 W/m² | - |
| 1777658935 | 22.22° C | 62% | 1016.7 hPa | 0 mm | - | 802 W/m² | - |
| 1777658631 | 22.22° C | 63% | 1016.5 hPa | 0 mm | - | 875 W/m² | - |
| 1777658025 | 22.22° C | 64% | 1016.8 hPa | 0 mm | - | 884 W/m² | - |
| 1777656815 | 22.22° C | 65% | 1016.5 hPa | 0 mm | - | 791 W/m² | - |
| 1777656205 | 21.11° C | 68% | 1016.5 hPa | 0 mm | - | 744 W/m² | - |
| 1777655901 | 21.11° C | 67% | 1016.4 hPa | 0 mm | - | 751 W/m² | - |
| 1777655598 | 20.56° C | 68% | 1016.5 hPa | 0 mm | - | 745 W/m² | - |
| 1777654992 | 20.56° C | 69% | 1016.4 hPa | 0 mm | - | 699 W/m² | - |
| 1777654689 | 20° C | 69% | 1016.6 hPa | 0 mm | - | 647 W/m² | - |
| 1777654387 | 20.56° C | 68% | 1016.4 hPa | 0 mm | - | 705 W/m² | - |
| 1777653477 | 20° C | 70% | 1016.2 hPa | 0 mm | - | 662 W/m² | - |
| 1777653175 | 20° C | 71% | 1016.5 hPa | 0 mm | - | 392 W/m² | - |
| 1777652870 | 19.44° C | 72% | 1016.5 hPa | 0 mm | - | 106 W/m² | - |
| 1777652567 | 18.89° C | 72% | 1016.4 hPa | 0 mm | - | 108 W/m² | - |
| 1777652264 | 18.33° C | 73% | 1016.3 hPa | 0 mm | - | 99 W/m² | - |
| 1777651961 | 18.33° C | 73% | 1016.5 hPa | 0 mm | - | 136 W/m² | - |
| 1777651657 | 17.78° C | 75% | 1016.3 hPa | 0 mm | - | 150 W/m² | - |
* Rain latest hour (hover to see other rain measurements)
** Current wind speed in m/s (hover to see current wind gust speed)